Time;durP1;ratioP1;P1;durP2;ratioP2;P2;SDS_P1;SDS_P2;PMS_P1;PMS_P2;Temp;Humidity;BMP_temperature;BMP_pressure;BME280_temperature;BME280_humidity;BME280_pressure;Samples;Min_cycle;Max_cycle;Signal;HPM_P1;HPM_P2
2023/06/30 00:00:12;;;;;;;42.10;20.73;;;19.00;93.10;;;;;;5088414;28;20099;-76
2023/06/30 00:02:41;;;;;;;38.92;20.30;;;19.00;93.40;;;;;;5087927;28;20079;-76
2023/06/30 00:05:09;;;;;;;37.40;20.48;;;19.00;93.60;;;;;;5088154;28;20044;-76
2023/06/30 00:07:36;;;;;;;39.00;20.73;;;19.00;93.70;;;;;;5066840;28;20476;-76
2023/06/30 00:10:06;;;;;;;44.00;20.40;;;19.00;93.70;;;;;;5089759;28;20046;-75
2023/06/30 00:12:33;;;;;;;47.70;22.92;;;19.00;94.00;;;;;;5081462;28;20052;-75
2023/06/30 00:15:00;;;;;;;39.17;20.63;;;19.00;94.70;;;;;;5083987;28;20052;-75
2023/06/30 00:17:27;;;;;;;48.50;22.02;;;18.90;94.80;;;;;;5075390;28;20129;-75
2023/06/30 00:19:57;;;;;;;45.85;22.08;;;18.80;95.30;;;;;;5084084;28;20830;-75
2023/06/30 00:22:24;;;;;;;43.30;21.45;;;18.80;95.50;;;;;;5058643;28;20563;-76
2023/06/30 00:24:55;;;;;;;46.15;23.02;;;18.70;95.80;;;;;;5074776;28;20054;-76
2023/06/30 00:27:23;;;;;;;45.40;22.92;;;18.70;96.50;;;;;;5061893;28;20428;-75
2023/06/30 00:29:50;;;;;;;47.38;23.23;;;18.60;96.50;;;;;;5078075;28;20480;-75
2023/06/30 00:32:17;;;;;;;53.28;23.55;;;18.60;97.10;;;;;;5083024;28;20055;-76
2023/06/30 00:34:44;;;;;;;52.75;24.30;;;18.60;97.10;;;;;;5087524;28;20047;-75
2023/06/30 00:37:12;;;;;;;49.40;23.88;;;18.50;97.50;;;;;;5089283;28;20154;-75
2023/06/30 00:39:39;;;;;;;50.25;23.65;;;18.50;97.60;;;;;;5089763;28;20052;-75
2023/06/30 00:42:06;;;;;;;51.25;23.42;;;18.50;97.60;;;;;;5061636;28;20052;-75
2023/06/30 00:44:33;;;;;;;49.05;24.48;;;18.40;97.80;;;;;;5061168;28;20485;-75
2023/06/30 00:47:00;;;;;;;52.10;24.25;;;18.40;98.20;;;;;;5073124;28;20086;-76
2023/06/30 00:49:32;;;;;;;44.83;23.35;;;18.40;98.10;;;;;;5092332;28;20048;-76
2023/06/30 00:51:59;;;;;;;48.53;24.90;;;18.40;98.40;;;;;;5085924;28;20054;-76
2023/06/30 00:54:26;;;;;;;53.28;23.83;;;18.40;98.40;;;;;;5087565;28;20047;-76
2023/06/30 00:56:53;;;;;;;50.45;24.73;;;18.30;98.40;;;;;;5071214;28;20056;-76
2023/06/30 00:59:21;;;;;;;49.35;23.90;;;18.30;98.60;;;;;;5093220;28;20067;-76
2023/06/30 01:02:01;;;;;;;53.28;25.50;;;18.30;98.40;;;;;;5099093;28;20051;-76
2023/06/30 01:04:31;;;;;;;59.38;25.98;;;18.30;98.50;;;;;;5081535;28;20443;-76
2023/06/30 01:07:15;;;;;;;51.05;24.52;;;18.30;98.80;;;;;;5085413;28;20076;-76
2023/06/30 01:10:00;;;;;;;52.05;25.70;;;18.20;98.90;;;;;;5079044;28;20060;-76
2023/06/30 01:12:27;;;;;;;62.55;24.85;;;18.20;99.20;;;;;;5083631;28;20047;-75
2023/06/30 01:14:55;;;;;;;53.25;25.15;;;18.20;99.30;;;;;;5093125;28;20770;-76
2023/06/30 01:17:24;;;;;;;51.03;25.02;;;18.20;99.40;;;;;;5097818;28;20051;-76
2023/06/30 01:19:55;;;;;;;59.97;26.65;;;18.20;99.40;;;;;;5090186;28;20055;-76
2023/06/30 01:22:39;;;;;;;50.42;25.60;;;18.20;99.20;;;;;;5073562;28;20048;-75
2023/06/30 01:25:10;;;;;;;51.38;25.17;;;18.20;99.60;;;;;;5071124;28;20055;-76
2023/06/30 01:27:40;;;;;;;63.05;26.83;;;18.10;99.50;;;;;;5085709;28;20045;-75
2023/06/30 01:30:09;;;;;;;58.20;25.95;;;18.10;99.50;;;;;;5068468;28;21366;-75
2023/06/30 01:32:36;;;;;;;55.08;25.10;;;18.10;99.60;;;;;;5079050;28;20056;-75
2023/06/30 01:35:03;;;;;;;63.17;26.65;;;18.10;99.70;;;;;;5082497;28;20483;-76
2023/06/30 01:37:30;;;;;;;59.95;26.42;;;18.10;99.70;;;;;;5092094;28;20056;-76
2023/06/30 01:40:00;;;;;;;63.05;26.73;;;18.10;99.70;;;;;;5071728;28;20052;-75
2023/06/30 01:42:27;;;;;;;63.47;27.38;;;18.10;99.90;;;;;;5092359;28;20687;-75
2023/06/30 01:44:56;;;;;;;53.60;25.75;;;18.10;100.00;;;;;;5075432;28;20044;-84
2023/06/30 01:47:23;;;;;;;67.25;27.58;;;18.10;100.00;;;;;;5065552;28;20502;-84
2023/06/30 01:49:50;;;;;;;70.78;28.25;;;18.10;100.00;;;;;;5084477;28;20568;-83
2023/06/30 01:52:17;;;;;;;59.05;27.02;;;18.00;99.80;;;;;;5091334;28;20059;-84
2023/06/30 01:54:44;;;;;;;64.22;28.45;;;18.00;99.90;;;;;;5068425;28;20124;-84
2023/06/30 01:57:11;;;;;;;64.18;28.15;;;18.00;99.90;;;;;;5097721;28;20134;-84
2023/06/30 01:59:38;;;;;;;68.68;29.20;;;18.00;100.00;;;;;;5096253;28;20493;-83
2023/06/30 02:02:05;;;;;;;68.57;29.27;;;18.00;99.90;;;;;;5092795;28;20145;-83
2023/06/30 02:04:32;;;;;;;69.15;26.63;;;18.00;99.90;;;;;;5098156;28;20130;-83
2023/06/30 02:06:59;;;;;;;61.45;28.40;;;17.90;99.90;;;;;;5096341;28;20576;-83
2023/06/30 02:09:26;;;;;;;62.22;28.13;;;17.90;99.90;;;;;;5090680;28;20120;-83
2023/06/30 02:12:12;;;;;;;65.88;26.50;;;17.90;99.80;;;;;;5089365;28;20060;-82
2023/06/30 02:14:39;;;;;;;64.53;28.52;;;17.90;100.00;;;;;;5088829;28;20043;-83
2023/06/30 02:17:08;;;;;;;62.08;28.35;;;17.90;100.00;;;;;;5075298;28;20040;-84
2023/06/30 02:19:36;;;;;;;67.22;29.00;;;17.90;99.90;;;;;;5086404;28;20056;-83
2023/06/30 02:22:03;;;;;;;57.80;27.55;;;17.90;100.00;;;;;;5094974;28;20135;-83
2023/06/30 02:24:30;;;;;;;69.35;28.70;;;17.90;100.00;;;;;;5070940;28;20125;-83
2023/06/30 02:26:57;;;;;;;70.00;28.05;;;17.90;100.00;;;;;;5071264;28;20048;-84
2023/06/30 02:29:23;;;;;;;65.35;27.50;;;17.90;100.00;;;;;;5075642;28;20059;-83
2023/06/30 02:31:50;;;;;;;64.35;28.13;;;17.90;100.00;;;;;;5079287;28;20067;-84
2023/06/30 02:34:18;;;;;;;67.47;28.10;;;17.90;100.00;;;;;;5070747;28;20050;-83
2023/06/30 02:36:48;;;;;;;68.03;29.60;;;17.90;100.00;;;;;;5090638;28;20090;-83
2023/06/30 02:39:16;;;;;;;68.78;28.55;;;17.90;100.00;;;;;;5067290;28;20056;-83
2023/06/30 02:41:43;;;;;;;63.38;28.20;;;17.90;100.00;;;;;;5090074;28;20074;-83
2023/06/30 02:44:10;;;;;;;72.93;29.88;;;17.90;100.00;;;;;;5072696;28;20122;-83
2023/06/30 02:46:37;;;;;;;66.80;28.55;;;17.90;100.00;;;;;;5084834;28;20089;-83
2023/06/30 02:49:04;;;;;;;71.47;29.35;;;17.90;100.00;;;;;;5089369;28;20047;-83
2023/06/30 02:51:31;;;;;;;69.93;26.73;;;17.90;100.00;;;;;;5092659;28;20055;-83
2023/06/30 02:53:58;;;;;;;70.95;29.15;;;17.90;100.00;;;;;;5090424;28;20480;-83
2023/06/30 02:56:53;;;;;;;66.10;28.13;;;17.90;100.00;;;;;;5092066;28;20079;-82
2023/06/30 02:59:22;;;;;;;68.47;28.73;;;17.90;100.00;;;;;;5062389;28;20159;-76
2023/06/30 03:01:48;;;;;;;72.85;27.83;;;17.90;100.00;;;;;;5081018;28;20425;-76
2023/06/30 03:04:15;;;;;;;67.45;27.45;;;17.80;100.00;;;;;;5071031;28;20438;-76
2023/06/30 03:06:42;;;;;;;63.22;27.52;;;17.80;100.00;;;;;;5082735;28;20044;-75
2023/06/30 03:09:09;;;;;;;70.28;28.27;;;17.80;100.00;;;;;;5085446;28;20050;-76
2023/06/30 03:11:36;;;;;;;64.50;27.90;;;17.80;100.00;;;;;;5083216;28;20135;-75
2023/06/30 03:14:03;;;;;;;68.03;27.45;;;17.80;100.00;;;;;;5065796;28;20134;-76
2023/06/30 03:16:31;;;;;;;64.68;26.83;;;17.80;100.00;;;;;;5073553;28;20068;-76
2023/06/30 03:18:58;;;;;;;63.28;26.33;;;17.80;100.00;;;;;;5068925;28;20712;-76
2023/06/30 03:21:25;;;;;;;70.20;26.65;;;17.80;100.00;;;;;;5080707;28;20431;-76
2023/06/30 03:23:52;;;;;;;60.65;27.27;;;17.80;100.00;;;;;;5084639;28;20039;-76
2023/06/30 03:26:19;;;;;;;77.00;27.00;;;17.80;100.00;;;;;;5086286;28;20344;-75
2023/06/30 03:28:46;;;;;;;66.45;27.02;;;17.70;100.00;;;;;;5087904;28;20044;-76
2023/06/30 03:31:13;;;;;;;63.97;26.42;;;17.80;100.00;;;;;;5063943;28;20078;-75
2023/06/30 03:33:40;;;;;;;62.47;25.23;;;17.80;100.00;;;;;;5077920;28;20496;-75
2023/06/30 03:36:08;;;;;;;73.60;26.33;;;17.80;100.00;;;;;;5072304;28;20102;-75
2023/06/30 03:38:34;;;;;;;66.55;27.27;;;17.80;100.00;;;;;;5062256;28;20040;-74
2023/06/30 03:41:01;;;;;;;64.70;25.70;;;17.80;100.00;;;;;;5074119;28;20130;-76
2023/06/30 03:43:28;;;;;;;64.97;26.13;;;17.80;100.00;;;;;;5089897;28;20050;-76
2023/06/30 03:45:55;;;;;;;69.22;26.40;;;17.80;100.00;;;;;;5083571;28;20102;-76
2023/06/30 03:48:23;;;;;;;62.00;24.23;;;17.80;100.00;;;;;;5076365;28;20052;-76
2023/06/30 03:50:53;;;;;;;63.28;25.85;;;17.80;100.00;;;;;;5076550;28;20699;-76
2023/06/30 03:53:21;;;;;;;67.28;25.60;;;17.80;100.00;;;;;;5087327;28;20186;-76
2023/06/30 03:55:48;;;;;;;62.13;26.17;;;17.90;100.00;;;;;;5084012;28;20130;-76
2023/06/30 03:58:15;;;;;;;66.22;25.98;;;17.90;100.00;;;;;;5071364;28;20055;-76
2023/06/30 04:00:41;;;;;;;57.90;24.48;;;17.90;100.00;;;;;;5093792;28;20159;-75
2023/06/30 04:03:08;;;;;;;62.72;24.95;;;17.90;100.00;;;;;;5086949;28;20058;-76
2023/06/30 04:05:35;;;;;;;68.28;25.95;;;17.90;100.00;;;;;;5068620;28;20159;-76
2023/06/30 04:08:02;;;;;;;64.85;25.10;;;18.00;100.00;;;;;;5086679;28;20129;-76
2023/06/30 04:10:30;;;;;;;57.47;23.05;;;17.90;100.00;;;;;;5069867;28;20074;-77
2023/06/30 04:12:56;;;;;;;64.45;24.30;;;17.90;100.00;;;;;;5069161;28;20060;-76
2023/06/30 04:15:23;;;;;;;63.35;24.02;;;17.90;100.00;;;;;;5083537;28;20056;-76
2023/06/30 04:17:51;;;;;;;55.03;22.10;;;17.90;100.00;;;;;;5067788;28;20052;-75
2023/06/30 04:20:18;;;;;;;55.22;21.10;;;17.90;100.00;;;;;;5093588;28;20389;-76
2023/06/30 04:22:44;;;;;;;48.05;20.25;;;17.90;99.70;;;;;;5092935;28;20162;-76
2023/06/30 04:25:11;;;;;;;50.50;19.48;;;17.90;99.50;;;;;;5090234;28;20521;-76
2023/06/30 04:27:38;;;;;;;40.95;17.40;;;17.90;99.30;;;;;;5068066;28;20052;-78
2023/06/30 04:30:07;;;;;;;39.08;17.73;;;17.90;98.90;;;;;;5087502;28;20488;-77
2023/06/30 04:32:34;;;;;;;41.85;17.98;;;17.90;98.90;;;;;;5067487;28;20052;-78
2023/06/30 04:35:01;;;;;;;45.03;16.67;;;17.90;98.60;;;;;;5086172;28;20048;-78
2023/06/30 04:37:31;;;;;;;49.10;16.42;;;17.90;98.50;;;;;;5087403;28;20047;-77
2023/06/30 04:39:59;;;;;;;35.25;14.30;;;17.90;98.60;;;;;;5084226;28;20496;-77
2023/06/30 04:42:29;;;;;;;29.65;14.25;;;17.90;98.20;;;;;;5070250;28;20055;-77
2023/06/30 04:44:56;;;;;;;32.50;11.98;;;18.00;98.90;;;;;;5096585;28;20670;-77
2023/06/30 04:47:22;;;;;;;27.25;12.25;;;18.00;98.50;;;;;;5082342;28;20138;-77
2023/06/30 04:49:49;;;;;;;31.58;12.18;;;18.00;97.90;;;;;;5094905;28;20051;-77
2023/06/30 04:52:16;;;;;;;25.80;10.68;;;18.00;97.20;;;;;;5087356;28;20088;-78
2023/06/30 04:54:44;;;;;;;25.02;11.07;;;18.00;97.30;;;;;;5099040;28;20054;-75
2023/06/30 04:57:10;;;;;;;21.58;10.70;;;18.00;97.40;;;;;;5086881;28;20841;-76
2023/06/30 04:59:38;;;;;;;21.45;9.43;;;18.10;97.60;;;;;;5084152;28;20812;-77
2023/06/30 05:02:05;;;;;;;17.90;8.38;;;18.10;97.50;;;;;;5074341;28;20440;-77
2023/06/30 05:04:32;;;;;;;17.50;8.15;;;18.10;97.10;;;;;;5085297;28;20052;-77
2023/06/30 05:06:59;;;;;;;17.48;7.22;;;18.20;96.80;;;;;;5072210;28;20535;-76
2023/06/30 05:09:26;;;;;;;15.55;5.72;;;18.20;96.60;;;;;;5094126;28;20044;-78
2023/06/30 05:11:53;;;;;;;13.45;5.78;;;18.20;95.50;;;;;;5078358;28;20054;-78
2023/06/30 05:14:19;;;;;;;13.23;4.63;;;18.20;94.40;;;;;;5089727;28;20132;-79
2023/06/30 05:16:46;;;;;;;18.90;4.43;;;18.20;95.20;;;;;;5072607;28;20044;-84
2023/06/30 05:19:14;;;;;;;9.68;3.92;;;18.30;94.30;;;;;;5095066;28;20046;-79
2023/06/30 05:21:41;;;;;;;11.48;3.00;;;18.30;94.00;;;;;;5099988;28;20060;-80
2023/06/30 05:24:08;;;;;;;8.93;2.95;;;18.30;93.00;;;;;;5077189;28;20056;-82
2023/06/30 05:26:34;;;;;;;11.25;4.72;;;18.30;92.40;;;;;;5079784;28;20047;-85
2023/06/30 05:29:01;;;;;;;7.93;2.63;;;18.40;93.30;;;;;;5078029;28;20055;-77
2023/06/30 05:31:31;;;;;;;5.93;2.85;;;18.40;92.30;;;;;;5077398;28;20050;-77
2023/06/30 05:33:58;;;;;;;10.00;2.88;;;18.40;92.30;;;;;;5101006;28;20075;-79
2023/06/30 05:36:25;;;;;;;3.55;2.35;;;18.40;92.00;;;;;;5092336;28;20048;-77
2023/06/30 05:38:52;;;;;;;7.75;2.38;;;18.40;92.30;;;;;;5087862;28;20830;-78
2023/06/30 05:41:18;;;;;;;9.38;2.53;;;18.50;91.80;;;;;;5076997;28;20539;-86
2023/06/30 05:43:46;;;;;;;5.35;2.72;;;18.50;92.30;;;;;;5082414;28;20067;-84
2023/06/30 05:46:12;;;;;;;8.10;3.08;;;18.50;90.50;;;;;;5093100;28;20586;-84
2023/06/30 05:48:39;;;;;;;5.85;2.28;;;18.50;90.50;;;;;;5075383;28;20119;-85
2023/06/30 05:51:06;;;;;;;14.23;2.42;;;18.50;91.30;;;;;;5070792;28;20363;-85
2023/06/30 05:53:33;;;;;;;4.22;2.08;;;18.50;91.30;;;;;;5088555;28;20488;-83
2023/06/30 05:56:00;;;;;;;5.95;1.85;;;18.40;90.20;;;;;;5071621;28;20134;-84
2023/06/30 05:58:27;;;;;;;4.13;1.85;;;18.50;90.30;;;;;;5096731;28;20130;-84
2023/06/30 06:00:53;;;;;;;16.75;4.72;;;18.50;91.00;;;;;;5088438;28;20094;-85
2023/06/30 06:03:21;;;;;;;9.50;2.10;;;18.60;90.70;;;;;;5069876;28;20040;-85
2023/06/30 06:05:48;;;;;;;5.45;2.15;;;18.60;89.90;;;;;;5098933;28;20070;-85
2023/06/30 06:08:15;;;;;;;7.07;2.03;;;18.50;89.80;;;;;;5079642;28;20047;-84
2023/06/30 06:10:43;;;;;;;5.57;1.45;;;18.60;90.50;;;;;;5091993;28;20131;-84
2023/06/30 06:13:10;;;;;;;11.95;2.03;;;18.60;90.40;;;;;;5081687;28;20554;-84
2023/06/30 06:15:37;;;;;;;12.18;2.50;;;18.60;90.40;;;;;;5095143;28;20626;-84
2023/06/30 06:18:03;;;;;;;11.55;2.20;;;18.60;89.80;;;;;;5080043;28;20048;-84
2023/06/30 06:20:31;;;;;;;5.68;2.08;;;18.60;90.20;;;;;;5091857;28;20063;-85
2023/06/30 06:22:57;;;;;;;9.57;1.92;;;18.60;89.30;;;;;;5105217;28;20488;-85
2023/06/30 06:25:24;;;;;;;5.22;1.70;;;18.60;88.60;;;;;;5072072;28;20449;-84
2023/06/30 06:27:51;;;;;;;2.85;2.10;;;18.60;89.30;;;;;;5089479;28;20123;-85
2023/06/30 06:30:19;;;;;;;9.70;2.30;;;18.60;89.30;;;;;;5097792;28;20050;-84
2023/06/30 06:32:46;;;;;;;5.85;2.15;;;18.60;89.70;;;;;;5076685;28;20098;-85
2023/06/30 06:35:13;;;;;;;4.72;1.98;;;18.60;88.80;;;;;;5070627;28;20416;-85
2023/06/30 06:37:40;;;;;;;5.20;1.60;;;18.60;87.50;;;;;;5075155;28;20099;-84
2023/06/30 06:40:07;;;;;;;5.03;1.98;;;18.60;86.30;;;;;;5093341;28;20075;-85
2023/06/30 06:42:34;;;;;;;15.35;2.22;;;18.60;86.80;;;;;;5072664;28;20052;-87
2023/06/30 06:45:03;;;;;;;5.13;2.10;;;18.70;86.90;;;;;;5077658;28;20492;-85
2023/06/30 06:48:07;;;;;;;6.50;1.80;;;18.70;87.00;;;;;;5080960;28;20067;-84
2023/06/30 06:50:34;;;;;;;9.45;1.60;;;18.70;86.20;;;;;;5074707;28;20127;-83
2023/06/30 06:53:01;;;;;;;9.35;1.70;;;18.70;85.70;;;;;;5099043;28;20087;-83
2023/06/30 06:55:28;;;;;;;10.85;2.08;;;18.70;86.00;;;;;;5089369;28;20047;-83
2023/06/30 06:57:55;;;;;;;5.55;1.80;;;18.70;86.50;;;;;;5071015;28;20048;-83
2023/06/30 07:00:22;;;;;;;11.35;1.83;;;18.80;86.40;;;;;;5092165;28;20845;-85
2023/06/30 07:02:48;;;;;;;6.05;1.65;;;18.80;85.70;;;;;;5092551;28;20060;-90
2023/06/30 07:05:16;;;;;;;5.70;1.63;;;18.90;85.70;;;;;;5080392;28;20040;-86
2023/06/30 07:07:43;;;;;;;6.18;1.60;;;18.90;85.90;;;;;;5060508;28;20044;-87
2023/06/30 07:10:11;;;;;;;9.35;1.60;;;18.90;85.70;;;;;;5072895;28;20047;-86
2023/06/30 07:12:38;;;;;;;4.55;1.50;;;19.00;86.30;;;;;;5090197;28;20040;-85
2023/06/30 07:15:05;;;;;;;9.57;1.70;;;19.10;84.40;;;;;;5071777;28;20440;-85
2023/06/30 07:17:32;;;;;;;3.38;1.30;;;19.10;84.40;;;;;;5072140;28;20852;-86
2023/06/30 07:19:59;;;;;;;4.55;1.35;;;19.10;83.40;;;;;;5070899;28;20052;-85
2023/06/30 07:22:26;;;;;;;5.72;1.90;;;19.10;83.80;;;;;;5065962;28;20059;-85
2023/06/30 07:24:53;;;;;;;8.95;1.55;;;19.10;82.90;;;;;;5076723;28;20082;-85
2023/06/30 07:27:20;;;;;;;7.32;1.30;;;19.10;83.20;;;;;;5066925;28;20676;-85
2023/06/30 07:29:49;;;;;;;3.85;1.30;;;19.10;82.30;;;;;;5072019;28;20075;-85
2023/06/30 07:32:17;;;;;;;7.72;1.60;;;19.10;83.20;;;;;;5077330;28;20489;-86
2023/06/30 07:34:44;;;;;;;8.25;1.23;;;19.10;82.60;;;;;;5076725;28;20075;-85
2023/06/30 07:37:10;;;;;;;8.68;1.10;;;19.00;81.70;;;;;;5100495;28;20040;-85
2023/06/30 07:39:37;;;;;;;9.68;1.60;;;19.00;82.00;;;;;;5076629;28;20829;-84
2023/06/30 07:42:05;;;;;;;6.30;1.25;;;18.90;81.60;;;;;;5077772;28;20131;-84
2023/06/30 07:44:33;;;;;;;2.75;0.90;;;18.80;81.70;;;;;;5094952;28;20047;-84
2023/06/30 07:47:00;;;;;;;5.68;1.38;;;18.70;82.00;;;;;;5096186;28;20139;-85
2023/06/30 07:49:27;;;;;;;7.72;0.98;;;18.70;83.00;;;;;;5093898;28;20791;-84
2023/06/30 07:51:54;;;;;;;11.70;1.27;;;18.70;83.40;;;;;;5094226;28;20044;-85
2023/06/30 07:54:21;;;;;;;4.50;0.98;;;18.70;83.70;;;;;;5092306;28;20044;-85
2023/06/30 07:56:48;;;;;;;4.63;1.33;;;18.80;84.20;;;;;;5075458;28;20511;-84
2023/06/30 07:59:15;;;;;;;4.13;2.05;;;18.80;82.90;;;;;;5077911;28;20129;-85
2023/06/30 08:01:42;;;;;;;4.65;1.13;;;18.70;82.80;;;;;;5094392;28;20067;-85
2023/06/30 08:04:08;;;;;;;6.15;1.00;;;18.70;81.80;;;;;;5093466;28;20484;-86
2023/06/30 08:06:36;;;;;;;5.38;1.40;;;18.70;81.10;;;;;;5093353;28;20535;-85
2023/06/30 08:09:03;;;;;;;7.50;1.63;;;18.60;81.20;;;;;;5092361;28;20040;-85
2023/06/30 08:11:30;;;;;;;10.98;1.65;;;18.60;80.30;;;;;;5092547;28;20052;-85
2023/06/30 08:13:59;;;;;;;13.10;1.63;;;18.50;80.90;;;;;;5072832;28;20083;-82
2023/06/30 08:16:26;;;;;;;7.97;2.22;;;18.50;80.50;;;;;;5091363;28;20136;-80
2023/06/30 08:18:53;;;;;;;4.40;1.27;;;18.40;81.00;;;;;;5089753;28;20060;-81
2023/06/30 08:21:21;;;;;;;11.60;1.58;;;18.40;81.40;;;;;;5089749;28;20059;-82
2023/06/30 08:27:06;;;;;;;12.35;1.30;;;18.40;82.30;;;;;;4990307;28;20137;-79
2023/06/30 08:29:33;;;;;;;12.68;1.63;;;18.40;82.30;;;;;;4994607;28;20100;-81
2023/06/30 08:32:01;;;;;;;5.47;1.33;;;18.40;81.80;;;;;;4980995;28;20050;-82
2023/06/30 08:34:27;;;;;;;7.65;1.05;;;18.30;80.30;;;;;;5025433;28;20789;-81
2023/06/30 08:36:55;;;;;;;4.43;1.00;;;18.40;80.60;;;;;;4983650;28;20053;-81
2023/06/30 08:39:23;;;;;;;6.80;1.38;;;18.40;81.50;;;;;;4991853;28;20089;-80
2023/06/30 08:41:52;;;;;;;9.07;1.55;;;18.40;82.40;;;;;;5002571;28;20108;-81
2023/06/30 08:44:24;;;;;;;10.85;1.50;;;18.40;84.10;;;;;;4991730;28;20157;-81
2023/06/30 08:47:00;;;;;;;10.30;1.70;;;18.40;84.80;;;;;;4993018;28;20046;-79
2023/06/30 08:49:29;;;;;;;9.35;1.45;;;18.30;84.60;;;;;;5002449;28;20403;-79
2023/06/30 08:51:57;;;;;;;6.85;1.40;;;18.20;85.00;;;;;;4996155;28;20121;-78
2023/06/30 08:54:24;;;;;;;6.53;1.50;;;18.10;86.00;;;;;;4972213;28;20129;-78
2023/06/30 08:56:53;;;;;;;8.10;1.85;;;17.90;86.30;;;;;;4980351;28;20074;-77
2023/06/30 08:59:20;;;;;;;3.58;1.20;;;17.90;88.10;;;;;;4997757;28;20046;-77
2023/06/30 09:01:48;;;;;;;3.72;1.10;;;17.80;87.40;;;;;;5002778;28;20084;-76
2023/06/30 09:04:16;;;;;;;13.77;1.48;;;17.60;87.10;;;;;;4981392;28;20050;-76
2023/06/30 09:06:49;;;;;;;7.55;1.52;;;17.50;88.50;;;;;;4991054;28;20046;-75
2023/06/30 09:09:24;;;;;;;7.95;1.67;;;17.40;89.90;;;;;;4999601;28;20145;-75
2023/06/30 09:11:52;;;;;;;;;;;17.30;90.50;;;;;;4988093;28;20138;-74
2023/06/30 09:14:21;;;;;;;6.18;1.42;;;17.10;91.90;;;;;;4989514;28;19947;-74
2023/06/30 09:16:48;;;;;;;4.82;1.20;;;17.00;91.60;;;;;;4977627;28;20060;-74
2023/06/30 09:19:15;;;;;;;6.28;1.70;;;16.80;92.10;;;;;;4997649;28;20060;-75
2023/06/30 09:21:42;;;;;;;4.75;1.88;;;16.70;92.10;;;;;;4994949;28;20088;-74
2023/06/30 09:24:09;;;;;;;6.85;1.30;;;16.60;92.90;;;;;;4993384;28;20145;-74
2023/06/30 09:26:36;;;;;;;9.63;1.45;;;16.50;93.00;;;;;;4991778;28;20080;-73
2023/06/30 09:29:08;;;;;;;3.72;1.52;;;16.40;94.10;;;;;;4990249;28;20054;-73
2023/06/30 09:31:35;;;;;;;6.43;2.03;;;16.30;94.30;;;;;;5003246;28;20096;-74
2023/06/30 09:34:13;;;;;;;13.95;2.47;;;16.20;94.70;;;;;;4997602;28;20116;-73
2023/06/30 09:36:47;;;;;;;8.77;2.25;;;16.10;96.30;;;;;;5005958;28;20042;-73
2023/06/30 09:39:14;;;;;;;9.93;1.77;;;16.10;97.50;;;;;;4996080;28;20050;-73
2023/06/30 09:41:48;;;;;;;6.75;1.63;;;16.10;98.20;;;;;;5012324;28;20703;-73
2023/06/30 09:44:20;;;;;;;6.80;1.77;;;16.10;98.20;;;;;;4997309;28;20400;-74
2023/06/30 09:46:51;;;;;;;15.27;2.38;;;16.00;98.30;;;;;;5005601;28;20050;-74
2023/06/30 09:49:36;;;;;;;9.70;2.00;;;16.00;98.80;;;;;;4990938;28;20166;-73
2023/06/30 09:52:05;;;;;;;11.45;2.88;;;16.00;99.20;;;;;;5017908;28;20555;-73
2023/06/30 09:54:33;;;;;;;15.00;2.90;;;16.00;99.90;;;;;;4996545;28;20085;-74
2023/06/30 09:57:10;;;;;;;12.48;2.25;;;16.00;99.70;;;;;;4992475;28;20132;-74
2023/06/30 09:59:38;;;;;;;8.00;2.42;;;16.00;99.70;;;;;;4989649;28;20146;-74
2023/06/30 10:02:05;;;;;;;6.47;2.03;;;16.00;100.00;;;;;;4991879;28;20081;-73
2023/06/30 10:04:32;;;;;;;3.88;1.80;;;16.00;100.00;;;;;;4978251;28;20164;-74
2023/06/30 10:07:03;;;;;;;11.80;3.03;;;16.00;100.00;;;;;;4995383;28;20050;-74
2023/06/30 10:09:33;;;;;;;8.93;2.83;;;16.10;100.00;;;;;;4975462;28;20208;-74
2023/06/30 10:12:00;;;;;;;5.38;2.15;;;16.10;100.00;;;;;;4996200;28;20050;-74
2023/06/30 10:14:30;;;;;;;5.47;2.28;;;16.20;100.00;;;;;;5009230;28;20135;-74
2023/06/30 10:17:00;;;;;;;10.05;2.33;;;16.20;100.00;;;;;;4997387;28;20140;-74
2023/06/30 10:19:28;;;;;;;15.55;2.63;;;16.30;100.00;;;;;;5006553;28;20137;-74
2023/06/30 10:21:56;;;;;;;5.97;2.22;;;16.30;100.00;;;;;;4986664;28;20081;-74
2023/06/30 10:24:28;;;;;;;5.45;2.22;;;16.30;100.00;;;;;;4983098;28;20841;-73
2023/06/30 10:26:58;;;;;;;6.90;2.17;;;16.40;100.00;;;;;;4985719;28;20060;-74
2023/06/30 10:29:25;;;;;;;3.42;1.88;;;16.40;100.00;;;;;;4970501;28;20516;-74
2023/06/30 10:31:52;;;;;;;10.32;2.75;;;16.40;99.40;;;;;;4985699;28;20094;-73
2023/06/30 10:34:25;;;;;;;6.68;2.15;;;16.40;99.20;;;;;;4984292;28;20085;-73
2023/06/30 10:36:52;;;;;;;4.53;1.95;;;16.40;99.20;;;;;;4988248;28;20132;-74
2023/06/30 10:39:19;;;;;;;7.95;2.22;;;16.40;99.40;;;;;;4980275;28;20444;-74
2023/06/30 10:41:50;;;;;;;8.23;2.47;;;16.40;98.00;;;;;;4982223;28;20042;-76
2023/06/30 10:44:20;;;;;;;9.15;2.53;;;16.40;98.50;;;;;;4968082;28;20054;-76
2023/06/30 10:46:57;;;;;;;8.85;2.00;;;16.40;98.60;;;;;;4985733;28;20042;-76
2023/06/30 10:49:39;;;;;;;7.68;2.35;;;16.40;97.70;;;;;;4970714;28;20054;-76
2023/06/30 10:52:25;;;;;;;7.10;2.15;;;16.50;97.30;;;;;;4982404;28;20756;-76
2023/06/30 10:54:52;;;;;;;8.63;2.10;;;16.60;97.80;;;;;;4967242;28;20137;-76
2023/06/30 10:57:24;;;;;;;5.88;2.60;;;16.60;96.00;;;;;;4999011;28;20065;-76
2023/06/30 11:00:06;;;;;;;4.60;1.75;;;16.70;96.80;;;;;;4966921;28;20104;-76
2023/06/30 11:02:34;;;;;;;7.47;2.72;;;16.90;97.50;;;;;;4967165;28;20541;-76
2023/06/30 11:05:25;;;;;;;5.85;2.22;;;16.90;94.40;;;;;;4967159;28;20054;-76
2023/06/30 11:07:54;;;;;;;4.40;2.17;;;17.00;94.20;;;;;;4982801;28;20160;-76
2023/06/30 11:10:44;;;;;;;7.28;2.28;;;17.00;91.50;;;;;;5000726;28;20671;-76
2023/06/30 11:13:11;;;;;;;17.17;2.10;;;17.10;94.00;;;;;;4984244;28;20133;-76
2023/06/30 11:15:44;;;;;;;4.47;2.33;;;17.20;93.40;;;;;;4964668;28;20073;-76
2023/06/30 11:18:19;;;;;;;3.53;2.00;;;17.20;90.20;;;;;;4997046;28;20534;-76
2023/06/30 11:21:06;;;;;;;6.35;1.98;;;17.20;90.70;;;;;;4996983;28;20669;-76
2023/06/30 11:23:41;;;;;;;6.13;2.00;;;17.20;89.50;;;;;;4965726;28;20054;-76
2023/06/30 11:26:13;;;;;;;7.57;2.03;;;17.30;91.40;;;;;;4981990;28;20229;-76
2023/06/30 11:28:42;;;;;;;13.90;2.40;;;17.40;91.60;;;;;;4981875;28;20065;-76
2023/06/30 11:31:11;;;;;;;7.53;2.15;;;17.50;91.00;;;;;;4965512;28;20314;-76
2023/06/30 11:33:40;;;;;;;14.25;2.22;;;17.70;90.50;;;;;;4997221;28;20141;-77
2023/06/30 11:36:14;;;;;;;9.35;2.42;;;17.90;90.80;;;;;;4983948;28;20082;-76
2023/06/30 11:38:51;;;;;;;6.72;2.45;;;18.20;87.20;;;;;;4961889;28;20499;-77
2023/06/30 11:41:19;;;;;;;8.05;2.58;;;18.30;84.80;;;;;;4977906;28;20046;-80
2023/06/30 11:43:50;;;;;;;4.28;1.60;;;18.40;83.20;;;;;;4981558;28;20053;-77
2023/06/30 11:46:17;;;;;;;4.13;1.65;;;18.50;82.10;;;;;;4995220;28;20042;-76
2023/06/30 11:48:44;;;;;;;8.45;2.00;;;18.60;82.80;;;;;;4964800;28;20532;-78
2023/06/30 11:51:14;;;;;;;8.00;1.65;;;18.60;79.80;;;;;;4976101;28;20097;-79
2023/06/30 11:53:47;;;;;;;5.03;1.95;;;18.70;82.50;;;;;;4969038;28;20046;-80
2023/06/30 11:56:17;;;;;;;6.10;1.70;;;18.90;80.20;;;;;;4987932;28;20058;-78
2023/06/30 11:58:51;;;;;;;13.00;2.00;;;19.30;83.00;;;;;;4969369;28;20054;-78
2023/06/30 12:01:21;;;;;;;10.98;2.22;;;19.80;79.80;;;;;;4965225;28;20053;-75
2023/06/30 12:04:08;;;;;;;3.80;1.70;;;20.30;77.20;;;;;;4977998;28;20400;-75
2023/06/30 12:06:38;;;;;;;7.18;1.73;;;20.40;76.20;;;;;;4994708;28;20683;-74
2023/06/30 12:09:06;;;;;;;11.68;2.25;;;20.40;71.80;;;;;;4993846;28;20085;-75
2023/06/30 12:11:33;;;;;;;8.18;1.63;;;20.80;74.30;;;;;;4980360;28;20086;-75
2023/06/30 12:14:10;;;;;;;8.52;2.45;;;20.90;72.40;;;;;;4971517;28;20066;-75
2023/06/30 12:16:51;;;;;;;7.65;1.40;;;21.10;72.20;;;;;;4966204;28;20492;-74
2023/06/30 12:19:27;;;;;;;3.42;1.40;;;21.00;68.80;;;;;;4976581;28;20065;-75
2023/06/30 12:22:03;;;;;;;7.45;1.98;;;21.10;71.10;;;;;;4982492;28;20050;-75
2023/06/30 12:24:32;;;;;;;6.15;1.60;;;21.20;73.10;;;;;;4971388;28;20132;-75
2023/06/30 12:27:03;;;;;;;6.47;1.35;;;21.30;70.50;;;;;;4985389;28;20058;-75
2023/06/30 12:29:33;;;;;;;7.32;1.60;;;21.40;65.50;;;;;;4988021;28;20061;-76
2023/06/30 12:32:19;;;;;;;7.03;1.67;;;21.40;67.10;;;;;;4987040;28;20086;-75
2023/06/30 12:34:46;;;;;;;5.35;1.42;;;21.60;67.20;;;;;;4984461;28;20050;-75
2023/06/30 12:37:18;;;;;;;7.25;1.50;;;21.90;67.00;;;;;;4987133;28;20062;-76
2023/06/30 12:39:46;;;;;;;5.10;1.40;;;22.10;65.90;;;;;;4999101;28;20046;-76
2023/06/30 12:42:13;;;;;;;6.35;1.55;;;22.20;66.60;;;;;;5004260;28;20058;-80
2023/06/30 12:44:40;;;;;;;8.38;1.45;;;22.20;61.60;;;;;;4999322;28;20043;-80
2023/06/30 12:47:07;;;;;;;4.43;1.50;;;22.20;65.30;;;;;;4995603;28;20126;-81